createdAt,value
2018-05-15T00:00:42.757Z,71.39
2018-05-15T00:03:10.866Z,71.58
2018-05-15T00:05:39.880Z,71.46
2018-05-15T00:08:08.304Z,71.53
2018-05-15T00:10:36.398Z,71.54
2018-05-15T00:13:04.777Z,71.86
2018-05-15T00:15:33.785Z,72.19
2018-05-15T00:18:01.933Z,72.37
2018-05-15T00:20:30.934Z,72.22
2018-05-15T00:22:59.084Z,72.43
2018-05-15T00:25:27.189Z,72.32
2018-05-15T00:27:55.532Z,72.48
2018-05-15T00:30:23.669Z,72.92
2018-05-15T00:32:51.769Z,73.05
2018-05-15T00:35:19.898Z,72.98
2018-05-15T00:37:48.017Z,73.34
2018-05-15T00:40:16.135Z,73.89
2018-05-15T00:42:44.238Z,73.67
2018-05-15T00:45:12.368Z,73.69
2018-05-15T01:00:35.507Z,75.19
2018-05-15T01:03:03.629Z,74.85
2018-05-15T01:05:31.772Z,74.96
2018-05-15T01:07:59.888Z,74.93
2018-05-15T01:10:27.992Z,75.44
2018-05-15T01:22:43.082Z,75.80
2018-05-15T01:25:11.224Z,75.81
2018-05-15T01:27:39.364Z,75.80
2018-05-15T01:30:07.509Z,75.80
2018-05-15T01:32:35.605Z,75.41
2018-05-15T01:35:03.789Z,75.23
2018-05-15T01:37:31.935Z,75.37
2018-05-15T01:40:01.153Z,75.18
2018-05-15T01:42:29.280Z,75.35
2018-05-15T01:44:57.385Z,75.33
2018-05-15T01:47:25.497Z,75.52
2018-05-15T01:49:54.607Z,75.35
2018-05-15T01:52:22.902Z,75.06
2018-05-15T01:54:50.981Z,75.01
2018-05-15T01:57:19.838Z,74.94
2018-05-15T01:59:47.968Z,74.80
2018-05-15T02:02:16.092Z,74.69
2018-05-15T02:04:45.748Z,74.73
2018-05-15T02:07:14.640Z,74.77
2018-05-15T02:09:42.759Z,75.27
2018-05-15T02:12:10.882Z,75.15
2018-05-15T02:14:39.340Z,75.22
2018-05-15T02:17:07.456Z,75.61
2018-05-15T02:19:36.571Z,75.46
2018-05-15T02:22:04.744Z,75.54
2018-05-15T02:24:32.859Z,75.49
2018-05-15T02:27:00.966Z,75.44
2018-05-15T02:29:29.086Z,75.68
2018-05-15T02:31:57.189Z,75.81
2018-05-15T02:34:25.293Z,76.10
2018-05-15T02:36:53.429Z,76.59
2018-05-15T02:39:21.525Z,76.69
2018-05-15T02:41:49.638Z,76.40
2018-05-15T02:44:17.775Z,76.89
2018-05-15T02:46:45.869Z,76.75
2018-05-15T02:49:14.732Z,76.40
2018-05-15T02:51:42.855Z,76.45
2018-05-15T02:54:10.943Z,76.48
2018-05-15T02:56:39.057Z,76.44
2018-05-15T02:59:07.173Z,76.37
2018-05-15T03:01:35.313Z,76.63
2018-05-15T03:04:03.437Z,76.81
2018-05-15T03:06:32.381Z,76.78
2018-05-15T03:09:00.492Z,76.83
2018-05-15T03:11:28.791Z,76.83
2018-05-15T03:13:56.886Z,76.69
2018-05-15T03:16:25.025Z,76.71
2018-05-15T03:18:53.140Z,76.57
2018-05-15T03:21:27.298Z,76.39
2018-05-15T03:23:55.417Z,76.34
2018-05-15T03:26:23.542Z,76.38
2018-05-15T03:28:51.693Z,76.65
2018-05-15T03:31:19.818Z,76.53
2018-05-15T03:33:47.927Z,76.57
2018-05-15T03:36:16.478Z,76.58
2018-05-15T03:38:44.601Z,76.36
2018-05-15T03:41:13.657Z,76.29
2018-05-15T03:43:41.772Z,76.51
2018-05-15T03:46:15.756Z,76.56
2018-05-15T03:48:43.832Z,76.76
2018-05-15T03:51:11.954Z,76.43
2018-05-15T03:53:40.067Z,76.49
2018-05-15T03:56:09.062Z,76.25
2018-05-15T03:58:37.188Z,76.25
2018-05-15T04:01:18.003Z,76.19
2018-05-15T04:03:57.853Z,76.33
2018-05-15T04:06:37.976Z,76.21
2018-05-15T04:09:06.110Z,76.17
2018-05-15T04:11:34.225Z,76.25
2018-05-15T04:14:02.319Z,76.30
2018-05-15T04:16:30.431Z,76.08
2018-05-15T04:18:58.540Z,75.85
2018-05-15T04:21:26.679Z,75.87
2018-05-15T04:23:54.784Z,75.98
2018-05-15T04:26:22.943Z,76.06
2018-05-15T04:28:51.164Z,76.05
2018-05-15T04:31:19.247Z,76.07
2018-05-15T04:33:47.388Z,76.05
2018-05-15T04:36:16.049Z,76.28
2018-05-15T04:38:50.533Z,76.22
2018-05-15T04:41:18.663Z,76.28
2018-05-15T04:43:47.841Z,76.44
2018-05-15T04:46:15.809Z,76.08
2018-05-15T04:48:49.445Z,75.87
2018-05-15T05:04:17.581Z,76.70
2018-05-15T05:06:45.961Z,76.81
2018-05-15T05:09:14.061Z,76.72
2018-05-15T05:11:42.191Z,76.32
2018-05-15T05:14:10.745Z,76.08
2018-05-15T05:16:38.848Z,76.01
2018-05-15T05:19:06.983Z,75.59
2018-05-15T05:21:35.219Z,75.58
2018-05-15T05:24:03.299Z,74.95
2018-05-15T05:26:31.455Z,74.51
2018-05-15T05:28:59.572Z,74.11
2018-05-15T05:31:33.256Z,73.96
2018-05-15T05:34:01.386Z,73.46
2018-05-15T05:36:30.020Z,73.52
2018-05-15T05:38:58.130Z,73.24
2018-05-15T05:41:26.314Z,72.80
2018-05-15T05:43:54.415Z,72.58
2018-05-15T05:46:22.587Z,72.38
2018-05-15T05:48:56.143Z,72.29
2018-05-15T05:51:29.693Z,72.12
2018-05-15T05:53:57.801Z,71.57
2018-05-15T05:56:25.896Z,71.47
2018-05-15T05:58:54.018Z,71.37
2018-05-15T06:11:07.465Z,68.50
2018-05-15T06:13:35.572Z,68.15
2018-05-15T06:16:03.674Z,67.66
2018-05-15T06:18:31.798Z,67.32
2018-05-15T06:20:59.978Z,67.38
2018-05-15T06:23:28.038Z,66.05
2018-05-15T06:25:56.143Z,66.00
2018-05-15T06:28:25.208Z,66.00
2018-05-15T06:30:53.316Z,64.72
2018-05-15T06:33:21.426Z,63.84
2018-05-15T06:35:49.542Z,63.39
2018-05-15T06:38:17.652Z,62.99
2018-05-15T06:40:46.232Z,62.49
2018-05-15T06:43:14.340Z,62.07
2018-05-15T06:45:42.456Z,61.61
2018-05-15T06:48:10.562Z,60.70
2018-05-15T06:50:38.759Z,59.69
2018-05-15T06:53:06.843Z,57.86
2018-05-15T06:55:35.188Z,55.62
2018-05-15T06:58:03.312Z,54.13
2018-05-15T07:00:31.421Z,52.78
2018-05-15T07:02:59.520Z,52.28
2018-05-15T07:05:27.650Z,50.59
2018-05-15T07:07:55.789Z,48.03
2018-05-15T07:10:24.224Z,47.43
2018-05-15T07:12:52.332Z,45.56
2018-05-15T07:15:20.466Z,44.58
2018-05-15T07:17:48.564Z,43.35
2018-05-15T07:20:16.671Z,43.63
2018-05-15T07:22:44.780Z,43.40
2018-05-15T07:25:13.838Z,42.74
2018-05-15T07:27:41.965Z,42.84
2018-05-15T07:30:10.130Z,42.36
2018-05-15T07:32:38.208Z,41.99
2018-05-15T07:35:06.312Z,42.52
2018-05-15T07:37:34.454Z,43.56
2018-05-15T07:40:02.564Z,45.22
2018-05-15T07:42:31.361Z,45.96
2018-05-15T07:44:59.646Z,46.20
2018-05-15T07:47:27.766Z,45.87
2018-05-15T07:49:55.891Z,45.17
2018-05-15T07:52:24.021Z,43.48
2018-05-15T07:54:57.074Z,43.66
2018-05-15T07:57:25.232Z,44.66
2018-05-15T07:59:53.349Z,44.91
2018-05-15T08:02:21.486Z,45.00
2018-05-15T08:04:49.979Z,44.70
2018-05-15T08:07:18.094Z,44.60
2018-05-15T08:09:46.210Z,43.71
2018-05-15T08:12:14.312Z,44.08
2018-05-15T08:14:42.439Z,43.48
2018-05-15T08:17:10.546Z,44.12
2018-05-15T08:19:38.688Z,43.94
2018-05-15T08:22:06.821Z,42.68
2018-05-15T08:24:34.935Z,42.54
2018-05-15T08:27:03.045Z,42.24
2018-05-15T08:29:31.148Z,42.35
2018-05-15T08:31:59.362Z,42.53
2018-05-15T08:34:27.436Z,42.35
2018-05-15T08:36:55.555Z,41.52
2018-05-15T08:39:23.670Z,40.50
2018-05-15T08:41:51.784Z,41.32
2018-05-15T08:44:19.939Z,40.58
2018-05-15T08:46:48.043Z,40.73
2018-05-15T08:49:22.093Z,40.54
2018-05-15T08:51:50.196Z,38.59
2018-05-15T08:54:18.306Z,39.34
2018-05-15T08:56:46.431Z,39.17
2018-05-15T08:59:14.549Z,38.64
2018-05-15T09:01:42.720Z,37.39
2018-05-15T09:04:12.061Z,37.91
2018-05-15T09:06:40.168Z,36.82
2018-05-15T09:09:08.267Z,37.94
2018-05-15T09:11:36.370Z,37.35
2018-05-15T09:14:04.465Z,37.40
2018-05-15T09:16:33.299Z,36.38
2018-05-15T09:19:01.400Z,36.01
2018-05-15T09:21:29.506Z,36.34
2018-05-15T09:23:57.618Z,35.51
2018-05-15T09:26:26.024Z,35.21
2018-05-15T09:28:54.390Z,36.71
2018-05-15T09:31:22.506Z,34.89
2018-05-15T09:33:50.914Z,33.50
2018-05-15T09:36:19.088Z,34.04
2018-05-15T09:38:47.135Z,34.67
2018-05-15T09:41:15.260Z,35.14
2018-05-15T09:43:58.284Z,34.68
2018-05-15T09:46:26.367Z,34.62
2018-05-15T09:48:54.464Z,34.37
2018-05-15T09:51:22.733Z,33.63
2018-05-15T09:53:50.828Z,32.87
2018-05-15T09:56:18.928Z,32.38
2018-05-15T09:58:47.055Z,31.39
2018-05-15T10:01:15.184Z,31.69
2018-05-15T10:03:43.808Z,33.35
2018-05-15T10:06:11.914Z,33.28
2018-05-15T10:08:40.942Z,31.44
2018-05-15T10:11:09.061Z,30.47
2018-05-15T10:13:37.153Z,29.75
2018-05-15T10:16:05.276Z,29.93
2018-05-15T10:18:33.375Z,29.93
2018-05-15T10:21:01.482Z,30.57
2018-05-15T10:23:29.611Z,30.30
2018-05-15T10:25:57.704Z,31.14
2018-05-15T10:28:25.845Z,31.46
2018-05-15T10:30:53.962Z,32.14
2018-05-15T10:33:22.061Z,32.06
2018-05-15T10:35:51.056Z,32.17
2018-05-15T10:38:19.178Z,32.09
2018-05-15T10:40:47.299Z,31.77
2018-05-15T10:43:15.400Z,32.39
2018-05-15T10:45:43.823Z,32.07
2018-05-15T10:48:11.913Z,32.31
2018-05-15T10:50:40.106Z,33.04
2018-05-15T10:53:08.166Z,33.43
2018-05-15T10:55:36.262Z,32.73
2018-05-15T10:58:04.358Z,32.71
2018-05-15T11:00:32.465Z,32.49
2018-05-15T11:03:00.561Z,31.39
2018-05-15T11:05:28.669Z,31.25
2018-05-15T11:07:56.784Z,30.38
2018-05-15T11:10:25.004Z,30.39
2018-05-15T11:12:53.175Z,30.93
2018-05-15T11:15:21.265Z,31.08
2018-05-15T11:17:50.145Z,31.19
2018-05-15T11:20:30.013Z,30.42
2018-05-15T11:26:02.376Z,28.56
2018-05-15T11:28:30.803Z,27.61
2018-05-15T11:30:58.970Z,27.91
2018-05-15T11:33:27.941Z,28.00
2018-05-15T11:35:56.945Z,28.15
2018-05-15T11:38:25.040Z,27.68
2018-05-15T11:40:53.130Z,28.07
2018-05-15T11:43:21.224Z,28.35
2018-05-15T11:45:49.967Z,28.44
2018-05-15T11:48:19.193Z,27.56
2018-05-15T11:50:47.616Z,27.77
2018-05-15T11:53:15.841Z,28.14
2018-05-15T11:55:43.204Z,27.68
2018-05-15T11:58:11.403Z,28.03
2018-05-15T12:00:39.498Z,28.87
2018-05-15T12:03:07.596Z,27.36
2018-05-15T12:05:36.034Z,27.12
2018-05-15T12:08:04.209Z,27.75
2018-05-15T12:10:32.311Z,27.68
2018-05-15T12:13:00.349Z,28.16
2018-05-15T12:15:28.720Z,28.24
2018-05-15T12:17:57.061Z,28.48
2018-05-15T12:20:25.204Z,28.78
2018-05-15T12:22:53.969Z,28.96
2018-05-15T12:25:22.542Z,28.78
2018-05-15T12:27:50.649Z,28.96
2018-05-15T12:30:18.759Z,28.77
2018-05-15T12:32:46.848Z,29.48
2018-05-15T12:35:14.969Z,28.90
2018-05-15T12:37:43.083Z,29.53
2018-05-15T12:53:11.191Z,30.01
2018-05-15T12:55:39.355Z,29.33
2018-05-15T12:58:08.033Z,29.31
2018-05-15T13:00:37.198Z,29.52
2018-05-15T13:03:06.157Z,28.87
2018-05-15T13:05:34.251Z,28.83
2018-05-15T13:08:02.378Z,28.98
2018-05-15T13:10:30.474Z,28.46
2018-05-15T13:12:58.617Z,28.73
2018-05-15T13:15:26.732Z,29.16
2018-05-15T13:17:56.255Z,28.61
2018-05-15T13:20:24.368Z,28.29
2018-05-15T13:22:52.920Z,28.68
2018-05-15T13:25:21.012Z,28.85
2018-05-15T13:27:49.112Z,28.46
2018-05-15T13:30:17.235Z,28.21
2018-05-15T13:32:45.336Z,28.53
2018-05-15T13:35:13.557Z,29.09
2018-05-15T13:37:41.589Z,29.21
2018-05-15T13:40:10.010Z,29.63
2018-05-15T13:42:38.168Z,28.65
2018-05-15T13:45:06.289Z,28.97
2018-05-15T13:47:34.644Z,28.97
2018-05-15T13:50:02.738Z,29.36
2018-05-15T13:52:31.194Z,29.45
2018-05-15T13:54:59.298Z,29.73
2018-05-15T13:57:27.730Z,29.90
2018-05-15T13:59:55.892Z,29.32
2018-05-15T14:02:24.005Z,29.75
2018-05-15T14:04:52.471Z,29.53
2018-05-15T14:07:20.609Z,29.74
2018-05-15T14:09:48.709Z,28.24
2018-05-15T14:12:16.860Z,28.28
2018-05-15T14:14:44.960Z,29.39
2018-05-15T14:17:13.116Z,28.36
2018-05-15T14:19:41.225Z,28.89
2018-05-15T14:22:11.243Z,29.13
2018-05-15T14:24:39.392Z,29.41
2018-05-15T14:27:07.933Z,28.82
2018-05-15T14:29:36.049Z,29.35
2018-05-15T14:32:05.069Z,29.39
2018-05-15T14:34:33.228Z,29.34
2018-05-15T14:37:01.343Z,28.89
2018-05-15T14:39:29.545Z,29.05
2018-05-15T14:42:09.547Z,29.40
2018-05-15T14:44:38.506Z,29.11
2018-05-15T14:47:07.577Z,28.42
2018-05-15T14:49:35.668Z,28.46
2018-05-15T14:52:03.781Z,28.58
2018-05-15T15:07:31.974Z,28.98
2018-05-15T15:10:00.041Z,28.37
2018-05-15T15:12:28.171Z,28.34
2018-05-15T15:14:56.260Z,28.78
2018-05-15T15:17:25.341Z,28.33
2018-05-15T15:19:53.388Z,27.77
2018-05-15T15:22:21.485Z,28.23
2018-05-15T15:24:49.610Z,28.59
2018-05-15T15:27:17.721Z,28.92
2018-05-15T15:29:45.834Z,28.84
2018-05-15T15:32:13.925Z,28.34
2018-05-15T15:34:42.059Z,28.03
2018-05-15T15:37:10.453Z,28.30
2018-05-15T15:39:38.536Z,27.88
2018-05-15T15:42:07.292Z,28.48
2018-05-15T15:44:35.411Z,28.20
2018-05-15T15:47:03.513Z,28.54
2018-05-15T15:49:31.727Z,27.99
2018-05-15T15:51:59.852Z,28.12
2018-05-15T15:54:27.952Z,28.54
2018-05-15T15:56:56.073Z,28.18
2018-05-15T15:59:25.087Z,28.09
2018-05-15T16:01:53.197Z,27.95
2018-05-15T16:04:21.324Z,28.49
2018-05-15T16:06:49.434Z,28.38
2018-05-15T16:09:17.527Z,28.40
2018-05-15T16:11:45.667Z,28.86
2018-05-15T16:14:13.800Z,28.23
2018-05-15T16:16:41.881Z,28.16
2018-05-15T16:19:10.969Z,28.17
2018-05-15T16:21:39.069Z,28.21
2018-05-15T16:24:07.169Z,28.21
2018-05-15T16:26:35.310Z,28.18
2018-05-15T16:29:03.420Z,28.15
2018-05-15T16:31:31.513Z,27.89
2018-05-15T16:33:59.643Z,28.33
2018-05-15T16:36:27.746Z,28.43
2018-05-15T16:38:55.844Z,28.30
2018-05-15T16:41:23.973Z,28.81
2018-05-15T16:43:52.530Z,27.91
2018-05-15T16:46:20.666Z,28.18
2018-05-15T16:48:48.786Z,28.37
2018-05-15T16:51:16.886Z,27.88
2018-05-15T16:53:45.006Z,28.27
2018-05-15T16:56:13.151Z,33.78
2018-05-15T16:58:41.301Z,35.31
2018-05-15T17:01:09.361Z,36.43
2018-05-15T17:03:37.513Z,36.29
2018-05-15T17:06:05.601Z,36.01
2018-05-15T17:08:33.696Z,36.07
2018-05-15T17:11:01.833Z,35.97
2018-05-15T17:13:30.014Z,36.24
2018-05-15T17:15:58.064Z,36.17
2018-05-15T17:18:26.195Z,36.54
2018-05-15T17:20:54.305Z,36.69
2018-05-15T17:23:23.126Z,36.51
2018-05-15T17:25:51.245Z,36.38
2018-05-15T17:28:19.340Z,36.94
2018-05-15T17:30:47.662Z,37.44
2018-05-15T17:33:15.772Z,37.21
2018-05-15T17:35:43.902Z,37.60
2018-05-15T17:38:12.498Z,37.36
2018-05-15T17:40:40.630Z,37.47
2018-05-15T17:43:08.704Z,37.64
2018-05-15T17:45:36.854Z,37.89
2018-05-15T17:48:05.010Z,38.29
2018-05-15T17:50:33.142Z,38.33
2018-05-15T17:53:01.369Z,38.50
2018-05-15T17:55:29.399Z,38.76
2018-05-15T17:57:57.480Z,39.00
2018-05-15T18:00:25.612Z,38.84
2018-05-15T18:02:53.722Z,39.10
2018-05-15T18:05:21.804Z,38.96
2018-05-15T18:07:50.009Z,38.85
2018-05-15T18:10:18.132Z,39.14
2018-05-15T18:12:46.251Z,39.05
2018-05-15T18:15:14.388Z,39.09
2018-05-15T18:17:42.437Z,39.15
2018-05-15T18:20:10.941Z,39.15
2018-05-15T18:22:39.060Z,39.29
2018-05-15T18:25:07.180Z,39.10
2018-05-15T18:27:35.309Z,39.63
2018-05-15T18:30:03.433Z,39.62
2018-05-15T18:32:32.308Z,39.42
2018-05-15T18:35:00.411Z,39.59
2018-05-15T18:37:28.529Z,39.83
2018-05-15T18:39:56.621Z,40.00
2018-05-15T18:42:24.768Z,39.92
2018-05-15T18:44:52.869Z,40.08
2018-05-15T18:47:20.998Z,40.11
2018-05-15T18:49:49.080Z,40.19
2018-05-15T18:52:17.194Z,40.11
2018-05-15T19:04:31.187Z,41.13
2018-05-15T19:06:59.803Z,41.24
2018-05-15T19:09:27.935Z,41.58
2018-05-15T19:11:56.053Z,41.94
2018-05-15T19:14:24.438Z,42.04
2018-05-15T19:16:53.302Z,42.25
2018-05-15T19:19:21.547Z,42.57
2018-05-15T19:21:49.570Z,42.76
2018-05-15T19:24:18.361Z,43.09
2018-05-15T19:26:46.502Z,43.43
2018-05-15T19:29:14.863Z,43.73
2018-05-15T19:31:42.948Z,43.68
2018-05-15T19:34:16.613Z,43.79
2018-05-15T19:36:50.315Z,44.05
2018-05-15T19:39:19.344Z,44.35
2018-05-15T19:41:47.460Z,44.51
2018-05-15T19:44:15.606Z,44.87
2018-05-15T19:46:43.686Z,45.03
2018-05-15T19:49:11.914Z,45.11
2018-05-15T19:51:40.042Z,45.85
2018-05-15T19:54:08.133Z,45.82
2018-05-15T19:56:36.241Z,46.33
2018-05-15T19:59:04.356Z,46.86
2018-05-15T20:01:32.467Z,47.29
2018-05-15T20:04:00.572Z,47.62
2018-05-15T20:06:29.634Z,47.66
2018-05-15T20:08:57.775Z,47.65
2018-05-15T20:11:25.839Z,47.99
2018-05-15T20:13:54.750Z,47.69
2018-05-15T20:16:22.857Z,47.87
2018-05-15T20:18:51.532Z,47.63
2018-05-15T20:21:19.835Z,47.99
2018-05-15T20:23:47.977Z,47.91
2018-05-15T20:26:16.042Z,48.16
2018-05-15T20:28:44.631Z,47.96
2018-05-15T20:31:12.761Z,47.51
2018-05-15T20:33:40.867Z,47.53
2018-05-15T20:36:08.977Z,48.37
2018-05-15T20:38:37.444Z,48.82
2018-05-15T20:41:06.198Z,49.30
2018-05-15T20:43:35.179Z,49.89
2018-05-15T20:46:04.079Z,50.57
2018-05-15T20:48:32.182Z,50.59
2018-05-15T20:51:00.343Z,50.47
2018-05-15T20:53:28.480Z,51.36
2018-05-15T20:55:56.603Z,51.78
2018-05-15T20:58:24.692Z,52.91
2018-05-15T21:00:52.822Z,53.22
2018-05-15T21:03:20.948Z,53.85
2018-05-15T21:05:49.048Z,54.50
2018-05-15T21:08:17.150Z,54.84
2018-05-15T21:10:45.279Z,55.42
2018-05-15T21:13:14.010Z,55.52
2018-05-15T21:15:42.477Z,56.28
2018-05-15T21:18:10.573Z,58.43
2018-05-15T21:20:38.690Z,60.14
2018-05-15T21:23:06.800Z,60.47
2018-05-15T21:25:34.908Z,60.57
2018-05-15T21:28:03.025Z,62.13
2018-05-15T21:30:31.159Z,62.61
2018-05-15T21:32:59.281Z,62.41
2018-05-15T21:35:27.771Z,61.92
2018-05-15T21:37:55.909Z,62.42
2018-05-15T21:40:24.024Z,63.45
2018-05-15T21:42:52.832Z,64.30
2018-05-15T21:45:20.945Z,65.13
2018-05-15T21:47:49.782Z,65.19
2018-05-15T21:50:17.881Z,64.74
2018-05-15T21:52:46.032Z,64.61
2018-05-15T21:55:14.903Z,65.14
2018-05-15T21:57:43.012Z,64.82
2018-05-15T22:00:11.908Z,64.92
2018-05-15T22:02:40.028Z,64.34
2018-05-15T22:05:08.468Z,64.14
2018-05-15T22:07:36.575Z,63.69
2018-05-15T22:10:04.708Z,63.60
2018-05-15T22:12:44.452Z,63.88
2018-05-15T22:15:24.646Z,63.93
2018-05-15T22:18:04.597Z,64.22
2018-05-15T22:20:44.806Z,64.28
2018-05-15T22:23:12.247Z,64.78
2018-05-15T22:25:40.381Z,64.64
2018-05-15T22:28:08.480Z,64.95
2018-05-15T22:30:36.600Z,65.29
2018-05-15T22:33:04.729Z,65.74
2018-05-15T22:35:32.866Z,66.32
2018-05-15T22:38:00.949Z,66.65
2018-05-15T22:40:29.065Z,67.19
2018-05-15T22:42:57.205Z,67.15
2018-05-15T22:45:25.310Z,66.66
2018-05-15T22:47:53.423Z,67.28
2018-05-15T22:50:22.419Z,66.81
2018-05-15T22:52:50.537Z,67.00
2018-05-15T22:55:18.660Z,67.96
2018-05-15T22:57:46.782Z,68.18
2018-05-15T23:00:14.918Z,67.99
2018-05-15T23:02:43.026Z,67.53
2018-05-15T23:05:11.443Z,67.26
2018-05-15T23:07:39.546Z,68.22
2018-05-15T23:10:07.654Z,68.50
2018-05-15T23:12:35.763Z,68.95
2018-05-15T23:15:03.937Z,68.97
2018-05-15T23:17:32.792Z,68.97
2018-05-15T23:20:00.937Z,68.83
2018-05-15T23:22:41.105Z,68.78
2018-05-15T23:25:09.216Z,68.92
2018-05-15T23:27:37.580Z,68.56
2018-05-15T23:30:05.686Z,68.32
2018-05-15T23:32:34.804Z,68.30
2018-05-15T23:35:02.954Z,68.74
2018-05-15T23:37:31.273Z,69.78
2018-05-15T23:39:59.399Z,70.14
2018-05-15T23:42:27.502Z,69.66
2018-05-15T23:44:55.984Z,69.71
2018-05-15T23:47:24.176Z,69.32
2018-05-15T23:49:52.287Z,68.59
2018-05-15T23:52:20.404Z,68.77
2018-05-15T23:54:48.516Z,69.40
2018-05-15T23:57:16.851Z,69.35
2018-05-15T23:59:44.975Z,69.65
